Monticello Municipal Ellis Field Monticello US
ICAO: KLLQ
IATA: LLQ
Category: Medium
Scheduled Services: No

Elevation: 270 ft
TransAlt. 18000 ft.

Airport Communications:
ASOS:133.325
MEMPHIS CNTR:135.875
JONESBORO RDO:122.1
CTAF/UNICOM:122.8

KLLQ Zoom In..

If Map Doesn't Load, Click Here

Runways:

(A) RW 03 length 5020 ft width 75 ft
---- / hdg 31

(B) RW 21 length 5020 ft width 75 ft
---- / hdg 211

Location; KLLQ
Day. 26 / Time. 11.07 Zulu
* Altimeter: 30.02
* Temperature: 23° c. 73.4°f.
* Wind from: 000° Speed 00 kn.
Dewpoint: 22° c.
Visibility: 8 Statute Miles.
Clouds: Few 600 ft.
Clouds: Scattered 8000 ft.
Clouds: Broken 1000 ft.

KLLQ 261107Z AUTO 00000KT 8SM FEW006 SCT080 BKN100 23/22 A3002 RMK AO2 T02280222


Wind - Calm.

 
 
jpsmedia.com for Web Design worldairports.se 2018   terms of use